Time;durP1;ratioP1;P1;durP2;ratioP2;P2;SDS_P1;SDS_P2;PMS_P1;PMS_P2;Temp;Humidity;BMP_temperature;BMP_pressure;BME280_temperature;BME280_humidity;BME280_pressure;Samples;Min_cycle;Max_cycle;Signal;HPM_P1;HPM_P2
2021/09/21 00:02:08;;;;;;;10.30;7.70;;;;;;;5.64;91.37;97311.09;115825;1196;36021;-82
2021/09/21 00:04:40;;;;;;;10.50;7.90;;;;;;;5.57;91.19;97314.95;115793;1196;79885;-81
2021/09/21 00:07:11;;;;;;;8.60;7.00;;;;;;;5.53;91.46;97315.77;115770;1189;67419;-82
2021/09/21 00:09:43;;;;;;;10.40;7.70;;;;;;;5.46;91.43;97318.90;115665;1196;37396;-82
2021/09/21 00:12:15;;;;;;;12.90;7.10;;;;;;;5.35;91.30;97324.35;115664;1183;30971;-82
2021/09/21 00:14:46;;;;;;;9.00;7.40;;;;;;;5.30;91.47;97323.10;115730;1196;30296;-82
2021/09/21 00:17:17;;;;;;;7.10;5.30;;;;;;;5.27;91.42;97331.14;115655;1190;24621;-83
2021/09/21 00:19:48;;;;;;;8.00;5.80;;;;;;;5.29;91.13;97329.34;115708;1196;30207;-83
2021/09/21 00:22:19;;;;;;;9.60;6.70;;;;;;;5.23;90.98;97332.67;115697;1190;33530;-83
2021/09/21 00:24:50;;;;;;;10.00;6.10;;;;;;;5.15;91.04;97329.74;115632;1190;27448;-82
2021/09/21 00:27:21;;;;;;;8.10;5.90;;;;;;;5.08;91.15;97331.20;115713;1191;30864;-82
2021/09/21 00:29:52;;;;;;;9.30;5.80;;;;;;;5.06;91.28;97328.15;115700;1196;32361;-81
2021/09/21 00:32:26;;;;;;;8.10;5.20;;;;;;;5.00;90.87;97327.67;115722;1189;29997;-81
2021/09/21 00:34:57;;;;;;;8.10;5.00;;;;;;;4.97;90.91;97330.71;115676;1196;28492;-83
2021/09/21 00:37:28;;;;;;;7.60;4.70;;;;;;;4.97;90.95;97331.70;115609;1196;35085;-82
2021/09/21 00:40:00;;;;;;;7.10;4.60;;;;;;;4.94;90.99;97330.96;115724;1196;27443;-82
2021/09/21 00:42:32;;;;;;;5.70;3.80;;;;;;;4.91;91.03;97333.13;115733;1196;45171;-82
2021/09/21 00:45:07;;;;;;;8.30;4.70;;;;;;;4.89;90.91;97335.39;115745;1183;27399;-81
2021/09/21 00:47:37;;;;;;;5.90;4.40;;;;;;;4.86;91.08;97334.58;115823;1196;31856;-82
2021/09/21 00:50:07;;;;;;;;;;;;;;;4.85;91.16;97332.39;115861;1196;34276;-82
2021/09/21 00:52:38;;;;;;;3.70;2.50;;;;;;;4.85;91.22;97333.97;115837;1196;37386;-81
2021/09/21 00:55:11;;;;;;;7.30;4.30;;;;;;;4.80;91.11;97326.48;115812;1196;27852;-82
2021/09/21 00:57:43;;;;;;;6.00;3.60;;;;;;;4.78;91.26;97331.41;115826;1189;35407;-81
2021/09/21 01:00:18;;;;;;;4.70;3.70;;;;;;;4.80;91.23;97331.17;115811;1190;28546;-82
2021/09/21 01:02:49;;;;;;;5.80;3.80;;;;;;;4.84;91.60;97327.96;115828;1195;27355;-82
2021/09/21 01:05:20;;;;;;;5.80;4.20;;;;;;;4.88;91.47;97326.91;115789;1196;82198;-82
2021/09/21 01:07:52;;;;;;;6.80;4.20;;;;;;;4.92;91.52;97327.39;115783;1190;32689;-82
2021/09/21 01:10:27;;;;;;;6.50;4.50;;;;;;;4.95;91.68;97328.25;115715;1196;27907;-83
2021/09/21 01:12:59;;;;;;;6.70;4.30;;;;;;;5.00;91.78;97326.14;115703;1196;34669;-81
2021/09/21 01:15:30;;;;;;;5.30;3.80;;;;;;;5.03;91.98;97323.13;115777;1196;30130;-83
2021/09/21 01:18:01;;;;;;;6.00;3.90;;;;;;;5.06;91.86;97322.73;115797;1196;30610;-82
2021/09/21 01:20:32;;;;;;;7.30;4.70;;;;;;;5.12;92.10;97322.14;115769;1196;39311;-82
2021/09/21 01:23:06;;;;;;;5.90;4.20;;;;;;;5.17;92.16;97325.52;115708;1197;28766;-82
2021/09/21 01:25:36;;;;;;;6.00;4.20;;;;;;;5.21;92.07;97323.17;115719;1196;28042;-82
2021/09/21 01:28:08;;;;;;;8.60;5.60;;;;;;;5.24;92.20;97320.40;115671;1196;25378;-82
2021/09/21 01:30:38;;;;;;;9.50;6.50;;;;;;;5.29;92.50;97316.19;115799;1189;28448;-81
2021/09/21 01:33:09;;;;;;;7.20;5.40;;;;;;;5.31;92.38;97313.77;115785;1195;34080;-81
2021/09/21 01:35:38;;;;;;;;;;;;;;;5.27;92.02;97316.67;115813;1196;30425;-82
2021/09/21 01:38:09;;;;;;;6.20;4.50;;;;;;;5.20;91.70;97316.70;115825;1195;26894;-82
2021/09/21 01:40:39;;;;;;;8.50;5.90;;;;;;;5.17;91.64;97315.05;115777;1196;28528;-81
2021/09/21 01:43:09;;;;;;;;;;;;;;;5.19;91.66;97312.63;115743;1196;29065;-82
2021/09/21 01:45:39;;;;;;;7.40;4.70;;;;;;;5.19;91.44;97310.43;115728;1190;26938;-82
2021/09/21 01:48:10;;;;;;;6.80;3.90;;;;;;;5.16;91.21;97314.78;115813;1196;26149;-82
2021/09/21 01:50:46;;;;;;;6.30;4.00;;;;;;;5.11;90.92;97316.96;115808;1196;26077;-81
2021/09/21 01:53:23;;;;;;;7.00;5.20;;;;;;;5.00;90.91;97312.60;115817;1196;26823;-81
2021/09/21 01:58:50;;;;;;;10.30;6.50;;;;;;;5.01;91.71;97311.69;115801;1195;30212;-82
2021/09/21 02:01:23;;;;;;;10.00;6.80;;;;;;;5.01;91.83;97310.36;115832;1196;31807;-82
2021/09/21 02:03:56;;;;;;;9.60;6.40;;;;;;;5.02;92.11;97310.59;115852;1196;35284;-82
2021/09/21 02:06:34;;;;;;;10.10;6.90;;;;;;;5.01;92.18;97310.80;115803;1196;32478;-82
2021/09/21 02:09:06;;;;;;;9.90;7.50;;;;;;;5.01;92.31;97310.05;115782;1196;42159;-81
2021/09/21 02:11:40;;;;;;;11.50;8.40;;;;;;;5.02;92.46;97313.98;115865;1196;29453;-81
2021/09/21 02:14:13;;;;;;;13.20;8.30;;;;;;;5.04;92.79;97309.54;115834;1196;36164;-81
2021/09/21 02:16:45;;;;;;;11.70;7.80;;;;;;;5.06;92.97;97313.23;115796;1190;31807;-82
2021/09/21 02:19:16;;;;;;;11.90;8.40;;;;;;;5.08;93.18;97312.54;115713;1196;34306;-81
2021/09/21 02:21:49;;;;;;;11.10;8.10;;;;;;;5.08;93.07;97315.36;115709;1196;28698;-81
2021/09/21 02:24:22;;;;;;;13.00;7.70;;;;;;;5.02;92.97;97312.92;115787;1196;31665;-81
2021/09/21 02:26:53;;;;;;;14.50;9.30;;;;;;;5.00;93.22;97310.77;115789;1196;32774;-81
2021/09/21 02:29:26;;;;;;;12.20;9.10;;;;;;;4.97;93.79;97313.16;115784;1195;27397;-81
2021/09/21 02:31:56;;;;;;;13.80;9.00;;;;;;;4.96;93.84;97313.92;115754;1181;32156;-82
2021/09/21 02:34:27;;;;;;;13.40;9.20;;;;;;;4.95;93.99;97314.11;115769;1196;25751;-81
2021/09/21 02:36:58;;;;;;;13.40;9.20;;;;;;;4.93;94.05;97314.48;115849;1196;25853;-82
2021/09/21 02:39:28;;;;;;;11.30;7.70;;;;;;;4.92;94.04;97318.34;115846;1196;30365;-81
2021/09/21 02:41:57;;;;;;;;;;;;;;;4.91;94.04;97322.45;115905;1195;26757;-82
2021/09/21 02:44:28;;;;;;;12.00;8.40;;;;;;;4.91;94.03;97328.16;115834;1195;39630;-81
2021/09/21 02:46:59;;;;;;;11.60;8.50;;;;;;;4.92;94.20;97325.31;115802;1190;32959;-82
2021/09/21 02:49:30;;;;;;;13.50;8.00;;;;;;;4.95;94.15;97331.92;115883;1195;24913;-82
2021/09/21 02:52:01;;;;;;;11.70;7.80;;;;;;;4.97;94.26;97334.81;115932;1195;28668;-81
2021/09/21 02:54:32;;;;;;;11.60;8.70;;;;;;;4.98;94.51;97337.41;115881;1195;38816;-81
2021/09/21 02:57:02;;;;;;;13.00;8.70;;;;;;;5.00;94.59;97337.30;115895;1195;33767;-83
2021/09/21 02:59:33;;;;;;;12.50;8.30;;;;;;;5.01;94.73;97341.36;115872;1196;28357;-80
2021/09/21 03:02:04;;;;;;;12.20;8.50;;;;;;;5.02;94.85;97343.98;115825;1196;39114;-79
2021/09/21 03:04:37;;;;;;;13.10;8.40;;;;;;;5.03;94.97;97343.10;115794;1188;39898;-81
2021/09/21 03:07:10;;;;;;;14.00;8.70;;;;;;;5.04;95.16;97341.02;115873;1196;24914;-81
2021/09/21 03:09:55;;;;;;;12.70;8.60;;;;;;;5.04;95.13;97344.39;115843;1196;30187;-82
2021/09/21 03:12:32;;;;;;;12.40;8.30;;;;;;;5.06;95.37;97345.53;115803;1196;48736;-81
2021/09/21 03:17:51;;;;;;;13.10;8.60;;;;;;;5.09;95.54;97352.14;115795;1196;39436;-82
2021/09/21 03:20:22;;;;;;;14.50;8.60;;;;;;;5.10;95.71;97352.11;115824;1190;31268;-82
2021/09/21 03:22:54;;;;;;;13.00;8.80;;;;;;;5.12;95.84;97356.14;115735;1190;25164;-81
2021/09/21 03:25:24;;;;;;;10.90;8.30;;;;;;;5.13;95.66;97357.92;115822;1195;29571;-82
2021/09/21 03:27:55;;;;;;;11.90;8.50;;;;;;;5.18;95.75;97357.36;115815;1195;28141;-82
2021/09/21 03:30:26;;;;;;;10.90;7.50;;;;;;;5.19;95.62;97359.63;115837;1196;48737;-81
2021/09/21 03:32:57;;;;;;;14.10;9.60;;;;;;;5.19;95.69;97356.73;115816;1195;35031;-82
2021/09/21 03:35:28;;;;;;;11.00;8.10;;;;;;;5.18;95.79;97361.73;115801;1195;29662;-81
2021/09/21 03:37:58;;;;;;;10.30;6.90;;;;;;;5.20;95.75;97365.02;115795;1189;37220;-81
2021/09/21 03:40:30;;;;;;;11.80;7.70;;;;;;;5.22;95.78;97368.36;115792;1196;30788;-82
2021/09/21 03:43:01;;;;;;;12.60;8.50;;;;;;;5.23;95.90;97369.53;115897;1195;26973;-81
2021/09/21 03:45:32;;;;;;;12.10;8.10;;;;;;;5.24;95.72;97369.18;115883;1190;28655;-81
2021/09/21 03:48:03;;;;;;;10.40;6.80;;;;;;;5.26;95.74;97369.96;115826;1196;27664;-82
2021/09/21 03:50:34;;;;;;;11.80;8.10;;;;;;;5.28;95.74;97371.16;115839;1196;27278;-81
2021/09/21 03:53:05;;;;;;;9.60;6.50;;;;;;;5.30;95.73;97371.05;115851;1190;27779;-81
2021/09/21 03:55:36;;;;;;;9.40;6.50;;;;;;;5.33;95.71;97375.45;115755;1195;36450;-81
2021/09/21 03:58:07;;;;;;;8.80;6.20;;;;;;;5.37;95.54;97384.23;115760;1196;29235;-80
2021/09/21 04:00:38;;;;;;;8.40;5.80;;;;;;;5.42;95.50;97379.71;115748;1196;28449;-81
2021/09/21 04:03:09;;;;;;;10.80;7.20;;;;;;;5.45;95.46;97383.20;115725;1196;53782;-81
2021/09/21 04:05:41;;;;;;;8.20;6.20;;;;;;;5.49;95.33;97382.34;115681;1197;28355;-82
2021/09/21 04:08:12;;;;;;;10.60;7.20;;;;;;;5.51;95.09;97381.47;115787;1196;28599;-81
2021/09/21 04:10:43;;;;;;;11.50;7.20;;;;;;;5.51;95.05;97379.00;115679;1196;27128;-81
2021/09/21 04:13:13;;;;;;;9.40;6.60;;;;;;;5.49;94.93;97374.37;115715;1196;25531;-82
2021/09/21 04:15:44;;;;;;;10.60;6.90;;;;;;;5.45;94.79;97366.05;115593;1197;83739;-81
2021/09/21 04:18:15;;;;;;;9.00;6.60;;;;;;;5.38;94.71;97360.52;115642;1196;85945;-82
2021/09/21 04:20:46;;;;;;;10.10;7.10;;;;;;;5.31;94.75;97364.61;115700;1196;25860;-82
2021/09/21 04:23:16;;;;;;;7.60;6.00;;;;;;;5.27;94.78;97362.89;115739;1196;29834;-81
2021/09/21 04:25:47;;;;;;;10.20;6.20;;;;;;;5.23;94.62;97364.70;115639;1197;31799;-81
2021/09/21 04:28:20;;;;;;;9.30;5.90;;;;;;;5.19;94.64;97365.42;115706;1196;27347;-82
2021/09/21 04:30:52;;;;;;;8.20;6.10;;;;;;;5.21;94.33;97365.42;115651;1196;29760;-81
2021/09/21 04:33:23;;;;;;;9.70;6.40;;;;;;;5.29;94.11;97367.56;115731;1195;26045;-82
2021/09/21 04:35:54;;;;;;;9.50;6.80;;;;;;;5.38;94.08;97374.63;115744;1196;26739;-82
2021/09/21 04:38:25;;;;;;;9.20;6.40;;;;;;;5.41;93.86;97376.80;115743;1190;26542;-80
2021/09/21 04:40:56;;;;;;;9.10;6.40;;;;;;;5.42;93.99;97375.49;115757;1196;34497;-81
2021/09/21 04:43:26;;;;;;;8.50;5.80;;;;;;;5.43;93.89;97375.84;115781;1196;30445;-82
2021/09/21 04:45:58;;;;;;;8.80;5.90;;;;;;;5.47;93.62;97379.45;115757;1189;27673;-82
2021/09/21 04:48:28;;;;;;;9.50;7.10;;;;;;;5.48;93.73;97380.48;115752;1196;29956;-81
2021/09/21 04:51:00;;;;;;;10.70;6.80;;;;;;;5.48;93.89;97384.00;115685;1197;27778;-83
2021/09/21 04:53:31;;;;;;;10.60;7.20;;;;;;;5.48;93.87;97385.21;115698;1197;31855;-81
2021/09/21 04:56:02;;;;;;;13.30;8.50;;;;;;;5.51;93.88;97392.60;115736;1197;30451;-81
2021/09/21 04:58:32;;;;;;;9.30;7.20;;;;;;;5.51;93.81;97394.71;115861;1195;30373;-82
2021/09/21 05:01:04;;;;;;;12.60;8.60;;;;;;;5.53;94.01;97390.30;115829;1196;32758;-82
2021/09/21 05:03:35;;;;;;;13.90;8.80;;;;;;;5.52;94.16;97386.63;115765;1196;29849;-81
2021/09/21 05:06:06;;;;;;;12.50;8.50;;;;;;;5.52;94.02;97387.12;115757;1196;32677;-81
2021/09/21 05:08:37;;;;;;;12.10;8.00;;;;;;;5.54;94.10;97390.15;115691;1196;38276;-81
2021/09/21 05:11:07;;;;;;;12.10;8.40;;;;;;;5.54;94.15;97391.05;115803;1190;32267;-81
2021/09/21 05:13:39;;;;;;;12.40;8.20;;;;;;;5.55;94.05;97389.61;115799;1196;27561;-81
2021/09/21 05:16:09;;;;;;;10.40;7.30;;;;;;;5.56;93.90;97393.31;115772;1195;24660;-82
2021/09/21 05:18:40;;;;;;;11.50;7.90;;;;;;;5.57;93.76;97389.91;115808;1196;26806;-82
2021/09/21 05:21:11;;;;;;;9.90;6.70;;;;;;;5.58;93.92;97395.19;115849;1195;31195;-81
2021/09/21 05:23:42;;;;;;;9.50;6.50;;;;;;;5.62;93.68;97400.70;115805;1189;30240;-81
2021/09/21 05:26:13;;;;;;;10.70;7.50;;;;;;;5.68;93.17;97402.84;115748;1196;34793;-82
2021/09/21 05:28:42;;;;;;;;;;;;;;;5.73;93.33;97408.06;115769;1196;25680;-82
2021/09/21 05:31:13;;;;;;;9.80;6.70;;;;;;;5.74;93.05;97407.02;115784;1196;28181;-82
2021/09/21 05:33:44;;;;;;;12.10;8.10;;;;;;;5.75;93.15;97409.80;115762;1196;29665;-82
2021/09/21 05:36:15;;;;;;;10.80;7.40;;;;;;;5.79;93.29;97410.69;115658;1196;33762;-81
2021/09/21 05:38:46;;;;;;;11.50;7.90;;;;;;;5.83;93.18;97415.63;115765;1196;34403;-82
2021/09/21 05:41:16;;;;;;;11.40;8.10;;;;;;;5.85;93.23;97421.30;115822;1196;29765;-82
2021/09/21 05:43:47;;;;;;;12.90;8.40;;;;;;;5.86;93.10;97426.95;115839;1196;25803;-82
2021/09/21 05:46:19;;;;;;;13.50;10.20;;;;;;;5.89;93.41;97431.39;115702;1196;37361;-82
2021/09/21 05:48:52;;;;;;;11.40;8.20;;;;;;;5.93;93.41;97436.63;115675;1196;30855;-82
2021/09/21 05:51:23;;;;;;;27.40;17.50;;;;;;;5.97;93.51;97443.20;115745;1196;31167;-82
2021/09/21 05:53:54;;;;;;;21.80;13.50;;;;;;;6.04;93.56;97445.30;115805;1196;27921;-81
2021/09/21 05:56:25;;;;;;;20.10;12.40;;;;;;;6.14;93.40;97446.22;115794;1196;27813;-82
2021/09/21 05:58:58;;;;;;;11.30;8.00;;;;;;;6.26;93.54;97453.52;115707;1196;29369;-81
2021/09/21 06:01:30;;;;;;;11.90;8.20;;;;;;;6.32;93.41;97452.06;115725;1196;30949;-81
2021/09/21 06:04:01;;;;;;;11.00;7.70;;;;;;;6.37;93.50;97454.21;115740;1196;28962;-81
2021/09/21 06:06:32;;;;;;;10.70;7.20;;;;;;;6.46;93.49;97455.45;115814;1196;32841;-81
2021/09/21 06:09:03;;;;;;;12.00;8.10;;;;;;;6.61;93.28;97455.80;115867;1190;30095;-82
2021/09/21 06:11:36;;;;;;;14.50;9.50;;;;;;;6.80;93.06;97458.38;115771;1196;29608;-80
2021/09/21 06:14:08;;;;;;;13.70;7.80;;;;;;;7.15;92.94;97460.91;115739;1197;30605;-82
2021/09/21 06:16:38;;;;;;;10.30;7.70;;;;;;;7.59;92.80;97459.42;115787;1189;28749;-83
2021/09/21 06:19:09;;;;;;;23.80;16.90;;;;;;;8.08;91.83;97461.06;115787;1196;30307;-82
2021/09/21 06:21:41;;;;;;;13.70;9.00;;;;;;;8.13;89.92;97461.84;115731;1196;68266;-81
2021/09/21 06:24:12;;;;;;;15.40;11.10;;;;;;;8.14;88.39;97460.25;115742;1196;29384;-82
2021/09/21 06:26:43;;;;;;;9.00;6.30;;;;;;;8.74;88.86;97458.69;115797;1190;27007;-82
2021/09/21 06:29:15;;;;;;;8.50;6.40;;;;;;;9.38;87.70;97457.10;115804;1196;27498;-82
2021/09/21 06:31:46;;;;;;;9.20;5.80;;;;;;;9.61;85.72;97455.41;115696;1196;26738;-83
2021/09/21 06:34:17;;;;;;;7.70;5.90;;;;;;;9.33;84.67;97459.75;115793;1196;28682;-82
2021/09/21 06:36:47;;;;;;;9.30;6.10;;;;;;;9.09;84.27;97461.98;115761;1196;26744;-83
2021/09/21 06:39:18;;;;;;;7.90;5.20;;;;;;;9.08;83.99;97457.79;115725;1196;28186;-82
2021/09/21 06:41:49;;;;;;;9.50;5.70;;;;;;;9.28;83.99;97462.66;115772;1184;28220;-82
2021/09/21 06:44:18;;;;;;;;;;;;;;;9.66;84.29;97464.62;115778;1196;39154;-82
2021/09/21 06:46:49;;;;;;;8.30;6.00;;;;;;;9.99;84.76;97467.98;115771;1196;25826;-83
2021/09/21 06:49:20;;;;;;;7.70;5.60;;;;;;;10.58;84.72;97467.83;115724;1196;32791;-81
2021/09/21 06:51:50;;;;;;;8.30;5.20;;;;;;;10.83;82.23;97468.11;115733;1196;63435;-82
2021/09/21 06:54:21;;;;;;;8.10;5.50;;;;;;;11.18;82.23;97471.33;115792;1196;32855;-81
2021/09/21 06:56:52;;;;;;;7.30;5.30;;;;;;;11.43;80.44;97471.88;115739;1190;29194;-82
2021/09/21 06:59:23;;;;;;;8.20;5.40;;;;;;;11.70;79.60;97470.52;115680;1189;58078;-81
2021/09/21 07:01:55;;;;;;;8.70;5.40;;;;;;;12.18;79.70;97467.77;115690;1196;31324;-82
2021/09/21 07:04:26;;;;;;;8.40;5.50;;;;;;;12.70;77.85;97476.52;115670;1197;33810;-82
2021/09/21 07:06:57;;;;;;;6.50;5.20;;;;;;;12.03;75.02;97475.21;115729;1196;27835;-81
2021/09/21 07:09:28;;;;;;;8.50;5.50;;;;;;;11.34;75.68;97477.27;115735;1193;26440;-81
2021/09/21 07:11:59;;;;;;;5.80;4.80;;;;;;;11.28;77.15;97478.12;115690;1196;30666;-82
2021/09/21 07:14:30;;;;;;;6.90;4.80;;;;;;;11.56;77.56;97477.02;115717;1196;24902;-82
2021/09/21 07:17:01;;;;;;;8.30;5.20;;;;;;;11.71;76.02;97480.45;115775;1196;25411;-82
2021/09/21 07:19:32;;;;;;;7.00;5.50;;;;;;;11.32;75.79;97486.36;115810;1196;25771;-82
2021/09/21 07:22:03;;;;;;;7.80;5.60;;;;;;;11.21;76.00;97484.83;115751;1196;31290;-82
2021/09/21 07:24:33;;;;;;;7.50;5.60;;;;;;;11.53;76.84;97483.64;115757;1196;29157;-82
2021/09/21 07:27:04;;;;;;;6.30;4.80;;;;;;;11.55;75.80;97482.00;115739;1197;27921;-81
2021/09/21 07:29:35;;;;;;;7.70;5.70;;;;;;;11.23;75.08;97478.73;115670;1196;28335;-80
2021/09/21 07:32:07;;;;;;;8.50;5.50;;;;;;;11.13;75.64;97479.98;115707;1196;31001;-81
2021/09/21 07:34:38;;;;;;;9.10;6.00;;;;;;;11.01;75.91;97480.23;115727;1196;27124;-82
2021/09/21 07:37:10;;;;;;;8.00;5.90;;;;;;;10.82;75.83;97480.05;115665;1197;27560;-82
2021/09/21 07:39:41;;;;;;;11.90;5.70;;;;;;;10.66;76.18;97488.45;115724;1192;30155;-82
2021/09/21 07:42:12;;;;;;;8.70;5.20;;;;;;;10.73;76.80;97491.20;115758;1196;32390;-82
2021/09/21 07:44:43;;;;;;;8.60;5.10;;;;;;;10.81;76.63;97492.92;115725;1196;25220;-82
2021/09/21 07:47:14;;;;;;;7.70;4.80;;;;;;;10.82;76.41;97491.55;115678;1196;29765;-82
2021/09/21 07:49:45;;;;;;;8.10;5.00;;;;;;;10.98;76.85;97493.61;115710;1196;31580;-82
2021/09/21 07:52:16;;;;;;;9.10;4.70;;;;;;;11.44;77.18;97491.80;115743;1191;28583;-82
2021/09/21 07:54:47;;;;;;;7.60;5.00;;;;;;;11.97;77.24;97490.94;115663;1196;25432;-83
2021/09/21 07:57:18;;;;;;;5.50;4.10;;;;;;;12.42;76.13;97495.31;115720;1196;30026;-82
2021/09/21 07:59:49;;;;;;;6.80;4.60;;;;;;;12.43;74.73;97494.30;115761;1196;26020;-82
2021/09/21 08:02:20;;;;;;;6.40;3.70;;;;;;;12.43;74.47;97490.73;115776;1196;27754;-82
2021/09/21 08:04:51;;;;;;;7.10;5.00;;;;;;;12.44;73.21;97493.98;115852;1195;27012;-82
2021/09/21 08:07:21;;;;;;;8.00;5.60;;;;;;;12.52;73.72;97493.85;115821;1195;30058;-82
2021/09/21 08:09:52;;;;;;;6.80;5.00;;;;;;;12.40;73.10;97492.27;115795;1195;27994;-83
2021/09/21 08:12:23;;;;;;;6.50;4.70;;;;;;;12.29;73.25;97487.40;115752;1196;29321;-82
2021/09/21 08:14:54;;;;;;;6.70;4.70;;;;;;;12.59;73.96;97490.33;115813;1196;27928;-83
2021/09/21 08:17:27;;;;;;;7.60;4.70;;;;;;;12.88;72.25;97490.90;115805;1196;29571;-83
2021/09/21 08:19:58;;;;;;;6.40;4.50;;;;;;;12.88;72.17;97484.52;115831;1187;27872;-82
2021/09/21 08:22:29;;;;;;;6.00;4.40;;;;;;;13.13;72.30;97481.71;115771;1195;31953;-82
2021/09/21 08:25:01;;;;;;;6.70;4.40;;;;;;;13.13;70.33;97482.10;115794;1196;27880;-82
2021/09/21 08:27:33;;;;;;;6.20;4.60;;;;;;;13.26;71.40;97480.72;115846;1196;27026;-83
2021/09/21 08:30:04;;;;;;;9.00;4.40;;;;;;;13.54;70.22;97482.12;115834;1196;29021;-83
2021/09/21 08:32:35;;;;;;;7.00;4.30;;;;;;;13.63;70.22;97483.30;115790;1196;27376;-80
2021/09/21 08:35:10;;;;;;;7.30;4.40;;;;;;;13.68;68.98;97488.90;115812;1196;28623;-83
2021/09/21 08:37:41;;;;;;;5.80;4.20;;;;;;;13.59;69.30;97494.88;115807;1196;25802;-83
2021/09/21 08:40:13;;;;;;;6.30;4.40;;;;;;;13.46;69.21;97493.95;115777;1195;27123;-83
2021/09/21 08:42:44;;;;;;;5.30;4.00;;;;;;;13.26;68.73;97493.02;115809;1196;32315;-83
2021/09/21 08:45:15;;;;;;;6.10;4.40;;;;;;;13.18;68.79;97495.81;115813;1195;27799;-83
2021/09/21 08:47:48;;;;;;;6.80;3.80;;;;;;;12.91;67.72;97497.33;115818;1195;28801;-80
2021/09/21 08:50:19;;;;;;;5.80;3.70;;;;;;;12.53;68.13;97497.36;115807;1195;29172;-82
2021/09/21 08:52:50;;;;;;;6.40;4.30;;;;;;;12.36;68.66;97492.76;115778;1195;33759;-83
2021/09/21 08:55:21;;;;;;;7.30;3.90;;;;;;;12.25;69.07;97494.10;115774;1196;28612;-83
2021/09/21 08:57:54;;;;;;;5.10;3.70;;;;;;;12.28;69.56;97495.97;115800;1195;31163;-81
2021/09/21 09:00:27;;;;;;;6.10;3.80;;;;;;;12.27;69.63;97499.95;115808;1195;26862;-82
2021/09/21 09:03:10;;;;;;;6.40;3.60;;;;;;;12.38;70.08;97499.94;115771;1196;35893;-83
2021/09/21 09:05:49;;;;;;;4.80;3.10;;;;;;;12.41;69.70;97499.89;115769;1196;30417;-82
2021/09/21 09:08:31;;;;;;;5.50;3.40;;;;;;;12.22;68.29;97502.03;115762;1195;30340;-82
2021/09/21 09:11:17;;;;;;;4.90;3.60;;;;;;;11.95;68.19;97508.81;115839;1196;27285;-83
2021/09/21 09:13:53;;;;;;;4.80;3.40;;;;;;;11.82;68.90;97513.05;115756;1195;45025;-82
2021/09/21 09:16:25;;;;;;;5.60;3.70;;;;;;;11.89;69.57;97515.56;115786;1195;28104;-83
2021/09/21 09:19:05;;;;;;;5.70;3.80;;;;;;;12.00;69.06;97512.23;115760;1196;28962;-82
2021/09/21 09:21:38;;;;;;;6.10;4.30;;;;;;;11.94;68.91;97513.91;115817;1195;40635;-81
2021/09/21 09:24:10;;;;;;;5.50;3.80;;;;;;;12.03;69.10;97512.77;115810;1195;35915;-82
2021/09/21 09:26:43;;;;;;;5.70;3.80;;;;;;;12.01;69.06;97515.64;115797;1195;32769;-82
2021/09/21 09:29:16;;;;;;;4.90;3.70;;;;;;;11.87;68.51;97519.60;115812;1195;28970;-83
2021/09/21 09:31:47;;;;;;;5.80;3.70;;;;;;;11.76;69.13;97522.68;115777;1195;29816;-83
2021/09/21 09:34:22;;;;;;;5.50;3.50;;;;;;;11.68;68.39;97516.81;115795;1195;27080;-82
2021/09/21 09:36:55;;;;;;;4.70;3.40;;;;;;;11.62;68.15;97520.42;115770;1195;32761;-82
2021/09/21 09:39:29;;;;;;;8.00;3.70;;;;;;;11.62;67.59;97524.83;115773;1190;30004;-82
2021/09/21 09:42:02;;;;;;;6.20;3.70;;;;;;;11.59;67.83;97519.36;115780;1196;28309;-83
2021/09/21 09:44:34;;;;;;;5.60;3.80;;;;;;;11.54;67.33;97515.93;115817;1196;26090;-82
2021/09/21 09:47:07;;;;;;;5.80;3.70;;;;;;;11.48;67.46;97523.09;115760;1196;33220;-83
2021/09/21 09:49:40;;;;;;;4.60;3.50;;;;;;;11.36;67.62;97518.27;115790;1196;29925;-82
2021/09/21 09:52:13;;;;;;;5.10;3.40;;;;;;;11.46;68.61;97518.36;115801;1195;27350;-83
2021/09/21 09:54:46;;;;;;;5.60;4.00;;;;;;;11.63;68.35;97516.75;115789;1195;29006;-82
2021/09/21 09:57:17;;;;;;;5.30;3.40;;;;;;;11.80;67.97;97512.66;115790;1195;27242;-83
2021/09/21 09:59:50;;;;;;;5.90;3.80;;;;;;;12.05;67.23;97512.65;115796;1196;28896;-82
2021/09/21 10:02:23;;;;;;;5.50;3.30;;;;;;;12.20;67.49;97515.42;115803;1195;29905;-83
2021/09/21 10:05:03;;;;;;;6.10;3.60;;;;;;;12.50;67.63;97519.08;115795;1195;38451;-83
2021/09/21 10:07:34;;;;;;;7.90;3.70;;;;;;;12.74;67.02;97514.94;115786;1182;26333;-83
2021/09/21 10:10:06;;;;;;;5.50;3.60;;;;;;;12.94;65.95;97516.17;115810;1189;39129;-81
2021/09/21 10:12:39;;;;;;;6.90;3.90;;;;;;;12.94;64.24;97519.51;115801;1195;32623;-82
2021/09/21 10:15:12;;;;;;;5.50;3.00;;;;;;;12.91;63.42;97519.36;115761;1195;25121;-82
2021/09/21 10:17:53;;;;;;;4.60;2.90;;;;;;;12.76;62.64;97515.15;115804;1195;27870;-83
2021/09/21 10:20:34;;;;;;;4.80;3.30;;;;;;;12.62;62.08;97512.89;115774;1195;35267;-83
2021/09/21 10:23:09;;;;;;;4.90;3.40;;;;;;;12.55;62.00;97515.89;115768;1196;32719;-82
2021/09/21 10:25:42;;;;;;;6.20;3.80;;;;;;;12.57;63.01;97513.91;115683;1197;32046;-83
2021/09/21 10:28:19;;;;;;;4.40;3.40;;;;;;;12.62;62.53;97514.90;115833;1189;29508;-83
2021/09/21 10:31:00;;;;;;;5.20;4.00;;;;;;;12.60;62.36;97512.52;115688;1190;33319;-83
2021/09/21 10:33:31;;;;;;;5.80;3.90;;;;;;;12.57;64.15;97518.33;115846;1196;48269;-83
2021/09/21 10:36:03;;;;;;;6.00;3.60;;;;;;;12.68;64.99;97523.79;115839;1195;30099;-82
2021/09/21 10:38:33;;;;;;;6.30;3.80;;;;;;;12.62;64.16;97526.23;115866;1196;26144;-83
2021/09/21 10:41:05;;;;;;;6.40;4.50;;;;;;;12.38;63.84;97520.41;115833;1196;38791;-83
2021/09/21 10:43:36;;;;;;;7.20;4.60;;;;;;;12.16;63.79;97520.90;115755;1196;35837;-83
2021/09/21 10:46:12;;;;;;;7.30;4.40;;;;;;;12.06;63.92;97521.58;115732;1190;37499;-82
2021/09/21 10:48:46;;;;;;;8.20;5.00;;;;;;;12.14;64.40;97519.30;115726;1196;28941;-83
2021/09/21 10:51:17;;;;;;;7.20;3.90;;;;;;;12.31;64.89;97516.01;115761;1196;49389;-83
2021/09/21 10:53:58;;;;;;;6.40;4.20;;;;;;;12.52;64.35;97514.98;115792;1196;32267;-83
2021/09/21 10:56:29;;;;;;;5.80;3.60;;;;;;;12.73;64.69;97513.98;115793;1191;26759;-83
2021/09/21 10:59:00;;;;;;;6.20;4.20;;;;;;;12.94;65.02;97512.33;115848;1196;30158;-83
2021/09/21 11:01:31;;;;;;;7.20;3.90;;;;;;;13.00;63.99;97511.30;115887;1195;27569;-83
2021/09/21 11:04:02;;;;;;;6.00;4.30;;;;;;;13.00;63.69;97513.23;115871;1190;30013;-83
2021/09/21 11:06:48;;;;;;;7.30;4.10;;;;;;;13.01;64.19;97509.06;115888;1195;28280;-83
2021/09/21 11:09:27;;;;;;;8.00;4.60;;;;;;;12.80;62.82;97516.95;115844;1190;27060;-83
2021/09/21 11:12:06;;;;;;;5.00;3.90;;;;;;;12.59;63.89;97516.35;115740;1195;73658;-83
2021/09/21 11:14:40;;;;;;;7.90;5.00;;;;;;;12.40;62.98;97515.41;115785;1195;29437;-82
2021/09/21 11:17:12;;;;;;;7.70;4.80;;;;;;;12.16;63.29;97513.45;115778;1196;32846;-83
2021/09/21 11:19:44;;;;;;;8.30;5.20;;;;;;;12.10;64.00;97517.85;115796;1195;30515;-83
2021/09/21 11:22:16;;;;;;;7.60;5.10;;;;;;;12.08;63.84;97511.27;115770;1196;34987;-83
2021/09/21 11:24:48;;;;;;;7.90;5.20;;;;;;;12.07;63.99;97506.05;115787;1195;33733;-82
2021/09/21 11:27:18;;;;;;;6.80;4.60;;;;;;;12.11;64.04;97497.18;115836;1195;30030;-84
2021/09/21 11:29:49;;;;;;;7.20;4.30;;;;;;;12.35;65.06;97496.00;115832;1195;25947;-83
2021/09/21 11:32:22;;;;;;;7.70;4.60;;;;;;;12.67;65.50;97492.61;115831;1190;27339;-83
2021/09/21 11:35:01;;;;;;;6.30;4.00;;;;;;;12.92;65.23;97486.63;115786;1195;34195;-82
2021/09/21 11:37:34;;;;;;;6.90;3.80;;;;;;;12.92;64.46;97485.61;115832;1195;31087;-83
2021/09/21 11:40:07;;;;;;;6.20;4.00;;;;;;;12.89;63.95;97496.11;115862;1196;32301;-83
2021/09/21 11:42:38;;;;;;;6.50;4.20;;;;;;;12.85;63.63;97485.38;115792;1196;32137;-83
2021/09/21 11:45:12;;;;;;;7.80;4.70;;;;;;;12.80;63.49;97491.73;115835;1195;36904;-82
2021/09/21 11:47:47;;;;;;;6.50;4.30;;;;;;;12.65;63.36;97488.83;115733;1191;29615;-83
2021/09/21 11:50:20;;;;;;;5.90;3.80;;;;;;;12.56;63.18;97493.60;115817;1196;31443;-84
2021/09/21 11:52:53;;;;;;;5.10;3.50;;;;;;;12.54;63.30;97493.81;115836;1195;34731;-82
2021/09/21 11:55:28;;;;;;;5.30;3.80;;;;;;;12.58;62.92;97489.64;115814;1195;27282;-84
2021/09/21 11:58:00;;;;;;;6.70;3.40;;;;;;;12.60;62.83;97487.78;115772;1180;30579;-83